Yates, Illinois
Current Conditions -  °F | °C
As of 9:55 AM on Wednesday 28 Jan 2015 (Local Time) from KPNT Reporting Station
Clear Clear  
Wind Chill: 20°   Ceiling: Unl
Heat Index: 30°   Visibility: 10mi
Dew Point: 22°   Wind: 14mph
Humidity: 73%   Direction: 150°SSE
Pressure: 30.26"   Gusts: NA
Location:  40.7409°N, 88.7189°W
Report Text: KPNT 281555Z AUTO 15012KT 10SM CLR M01/M05 A3026 RMK AO2 T10111054
Loading
Personal Weather Stations






























Interactive Weather Map New forecast layout! Learn more

10-Day Weather Forecast

Advertisements
Track Severe Weather on mobile